createdAt,value
2019-02-15T00:01:27.405Z,5.30
2019-02-15T00:03:57.415Z,5.80
2019-02-15T00:06:27.245Z,5.80
2019-02-15T00:08:58.574Z,5.80
2019-02-15T00:11:28.271Z,6.13
2019-02-15T00:13:57.983Z,6.30
2019-02-15T00:16:26.891Z,6.67
2019-02-15T00:19:25.747Z,7.07
2019-02-15T00:21:55.775Z,6.77
2019-02-15T00:24:25.920Z,6.40
2019-02-15T00:26:56.197Z,6.33
2019-02-15T00:29:26.290Z,6.33
2019-02-15T00:31:56.459Z,6.20
2019-02-15T00:34:27.545Z,5.80
2019-02-15T00:36:58.063Z,6.00
2019-02-15T00:39:28.162Z,6.53
2019-02-15T00:42:01.097Z,6.17
2019-02-15T00:44:31.772Z,6.23
2019-02-15T00:47:19.440Z,6.50
2019-02-15T00:50:22.063Z,6.00
2019-02-15T00:52:57.967Z,6.27
2019-02-15T00:55:39.352Z,6.00
2019-02-15T00:58:31.110Z,5.90
2019-02-15T01:01:06.559Z,5.90
2019-02-15T01:03:49.942Z,6.17
2019-02-15T01:06:50.448Z,5.43
2019-02-15T01:09:40.693Z,5.93
2019-02-15T01:12:20.915Z,6.00
2019-02-15T01:14:51.695Z,5.80
2019-02-15T01:17:20.983Z,5.20
2019-02-15T01:19:50.869Z,4.63
2019-02-15T01:22:20.612Z,5.90
2019-02-15T01:24:51.163Z,5.90
2019-02-15T01:27:32.938Z,5.20
2019-02-15T01:30:25.350Z,5.80
2019-02-15T01:33:11.575Z,5.37
2019-02-15T01:36:13.081Z,5.40
2019-02-15T01:39:09.445Z,5.43
2019-02-15T01:41:57.961Z,5.67
2019-02-15T01:44:34.343Z,5.90
2019-02-15T01:47:14.206Z,5.53
2019-02-15T01:49:43.151Z,5.70
2019-02-15T01:52:13.858Z,5.60
2019-02-15T01:54:44.198Z,5.57
2019-02-15T01:57:13.311Z,5.63
2019-02-15T01:59:42.473Z,5.63
2019-02-15T02:02:13.745Z,5.43
2019-02-15T02:04:45.748Z,5.37
2019-02-15T02:07:15.845Z,5.37
2019-02-15T02:09:44.765Z,6.13
2019-02-15T02:12:13.998Z,5.43
2019-02-15T02:14:45.195Z,5.50
2019-02-15T02:17:16.123Z,5.27
2019-02-15T02:19:45.431Z,5.20
2019-02-15T02:22:14.511Z,5.73
2019-02-15T02:24:44.805Z,5.33
2019-02-15T02:27:14.420Z,4.77
2019-02-15T02:29:44.442Z,5.37
2019-02-15T02:32:14.682Z,5.60
2019-02-15T02:34:45.515Z,5.43
2019-02-15T02:37:17.130Z,5.77
2019-02-15T02:39:48.537Z,4.40
2019-02-15T02:42:18.341Z,5.60
2019-02-15T02:44:48.340Z,6.13
2019-02-15T02:47:19.447Z,5.73
2019-02-15T02:49:50.874Z,5.70
2019-02-15T02:52:21.826Z,5.33
2019-02-15T02:54:51.851Z,5.70
2019-02-15T02:57:21.472Z,5.97
2019-02-15T02:59:51.923Z,4.60
2019-02-15T03:02:21.558Z,5.07
2019-02-15T03:04:51.447Z,5.20
2019-02-15T03:07:21.415Z,5.30
2019-02-15T03:09:52.749Z,5.30
2019-02-15T03:12:23.230Z,5.73
2019-02-15T03:14:52.491Z,5.70
2019-02-15T03:17:22.833Z,5.23
2019-02-15T03:19:52.206Z,5.80
2019-02-15T03:22:21.802Z,5.80
2019-02-15T03:24:51.299Z,5.10
2019-02-15T03:27:22.120Z,5.50
2019-02-15T03:29:52.538Z,5.37
2019-02-15T03:32:23.407Z,5.77
2019-02-15T03:34:53.745Z,5.60
2019-02-15T03:37:52.787Z,5.50
2019-02-15T03:40:32.692Z,6.00
2019-02-15T03:43:04.662Z,5.97
2019-02-15T03:45:34.704Z,5.30
2019-02-15T03:48:04.665Z,5.23
2019-02-15T03:50:34.308Z,5.73
2019-02-15T03:53:06.578Z,5.53
2019-02-15T03:55:37.283Z,5.43
2019-02-15T03:58:06.924Z,4.40
2019-02-15T04:00:37.595Z,5.10
2019-02-15T04:03:07.449Z,5.57
2019-02-15T04:05:37.217Z,5.20
2019-02-15T04:08:08.211Z,5.03
2019-02-15T04:10:41.546Z,4.93
2019-02-15T04:13:15.342Z,4.87
2019-02-15T04:15:45.853Z,4.73
2019-02-15T04:18:15.026Z,5.43
2019-02-15T04:20:48.324Z,4.80
2019-02-15T04:23:18.262Z,4.90
2019-02-15T04:25:49.403Z,4.80
2019-02-15T04:28:19.308Z,4.90
2019-02-15T04:30:48.069Z,4.90
2019-02-15T04:33:17.156Z,4.70
2019-02-15T04:35:47.680Z,5.47
2019-02-15T04:38:18.215Z,5.00
2019-02-15T04:40:48.875Z,4.90
2019-02-15T04:43:18.778Z,4.60
2019-02-15T04:45:49.114Z,5.13
2019-02-15T04:48:19.569Z,5.40
2019-02-15T04:50:49.975Z,4.90
2019-02-15T04:53:19.588Z,5.10
2019-02-15T04:55:49.475Z,5.27
2019-02-15T04:58:20.455Z,5.13
2019-02-15T05:00:50.639Z,5.30
2019-02-15T05:03:20.517Z,3.97
2019-02-15T05:05:50.474Z,5.30
2019-02-15T05:08:19.896Z,5.30
2019-02-15T05:10:50.181Z,5.13
2019-02-15T05:13:20.529Z,4.60
2019-02-15T05:15:49.551Z,5.27
2019-02-15T05:18:21.302Z,4.93
2019-02-15T05:20:51.282Z,5.27
2019-02-15T05:23:21.143Z,5.10
2019-02-15T05:25:52.438Z,5.20
2019-02-15T05:28:23.594Z,5.17
2019-02-15T05:30:55.035Z,5.43
2019-02-15T05:33:23.988Z,5.37
2019-02-15T05:35:53.632Z,5.37
2019-02-15T05:38:22.832Z,5.30
2019-02-15T05:40:52.207Z,5.47
2019-02-15T05:43:22.428Z,5.43
2019-02-15T05:45:52.312Z,5.27
2019-02-15T05:48:22.711Z,4.97
2019-02-15T05:50:52.994Z,4.93
2019-02-15T05:53:23.977Z,5.07
2019-02-15T05:55:54.248Z,4.77
2019-02-15T05:58:24.550Z,5.23
2019-02-15T06:00:53.905Z,6.53
2019-02-15T06:03:24.615Z,7.40
2019-02-15T06:05:55.197Z,6.57
2019-02-15T06:08:26.141Z,6.43
2019-02-15T06:11:06.514Z,6.57
2019-02-15T06:13:29.430Z,6.60
2019-02-15T06:15:58.414Z,7.13
2019-02-15T06:18:28.009Z,7.27
2019-02-15T06:21:00.549Z,5.43
2019-02-15T06:23:29.865Z,5.63
2019-02-15T06:26:01.167Z,5.40
2019-02-15T06:28:31.756Z,5.83
2019-02-15T06:31:01.893Z,5.40
2019-02-15T06:33:31.286Z,6.87
2019-02-15T06:36:01.641Z,7.80
2019-02-15T06:38:34.833Z,7.33
2019-02-15T06:41:03.758Z,6.47
2019-02-15T06:43:35.136Z,7.17
2019-02-15T06:46:06.021Z,6.57
2019-02-15T06:48:36.709Z,7.57
2019-02-15T06:51:07.034Z,7.00
2019-02-15T06:53:38.653Z,6.67
2019-02-15T06:56:11.133Z,6.20
2019-02-15T06:58:52.248Z,6.47
2019-02-15T07:01:32.052Z,6.63
2019-02-15T07:04:25.461Z,6.53
2019-02-15T07:06:55.382Z,7.10
2019-02-15T07:09:24.905Z,7.43
2019-02-15T07:11:56.039Z,7.77
2019-02-15T07:14:25.794Z,7.50
2019-02-15T07:16:57.669Z,7.50
2019-02-15T07:19:28.015Z,7.37
2019-02-15T07:21:58.273Z,6.63
2019-02-15T07:24:27.565Z,7.67
2019-02-15T07:26:56.951Z,7.73
2019-02-15T07:29:29.610Z,7.50
2019-02-15T07:31:59.270Z,7.33
2019-02-15T07:34:29.191Z,6.57
2019-02-15T07:37:01.122Z,6.37
2019-02-15T07:39:31.139Z,6.30
2019-02-15T07:42:01.571Z,6.60
2019-02-15T07:44:34.014Z,6.90
2019-02-15T07:47:03.599Z,7.13
2019-02-15T07:49:34.927Z,7.93
2019-02-15T08:04:50.353Z,9.05
2019-02-15T08:07:19.630Z,7.13
2019-02-15T08:09:49.148Z,7.63
2019-02-15T08:12:18.586Z,6.93
2019-02-15T08:14:48.247Z,6.27
2019-02-15T08:17:18.516Z,7.00
2019-02-15T08:19:50.846Z,7.03
2019-02-15T08:22:22.750Z,8.73
2019-02-15T08:24:55.956Z,15.53
2019-02-15T08:27:27.040Z,9.93
2019-02-15T08:29:59.123Z,9.87
2019-02-15T08:32:28.925Z,9.33
2019-02-15T08:34:59.661Z,7.77
2019-02-15T08:37:30.439Z,7.87
2019-02-15T08:40:00.976Z,7.70
2019-02-15T08:42:30.528Z,7.57
2019-02-15T08:45:01.456Z,7.57
2019-02-15T08:47:30.691Z,7.57
2019-02-15T08:50:03.996Z,7.80
2019-02-15T08:52:33.809Z,7.17
2019-02-15T08:55:04.198Z,6.40
2019-02-15T08:57:37.446Z,6.37
2019-02-15T09:00:10.299Z,6.87
2019-02-15T09:02:40.967Z,8.10
2019-02-15T09:05:13.095Z,7.23
2019-02-15T09:07:42.534Z,6.90
2019-02-15T09:10:14.509Z,7.40
2019-02-15T09:12:44.626Z,7.77
2019-02-15T09:15:18.958Z,8.10
2019-02-15T09:17:48.100Z,8.70
2019-02-15T09:20:18.628Z,7.73
2019-02-15T09:22:48.924Z,7.53
2019-02-15T09:25:19.657Z,7.70
2019-02-15T09:28:14.974Z,6.73
2019-02-15T09:30:48.333Z,7.93
2019-02-15T09:33:19.171Z,7.23
2019-02-15T09:35:49.646Z,7.27
2019-02-15T09:38:18.309Z,8.13
2019-02-15T09:40:50.424Z,7.13
2019-02-15T09:43:21.495Z,7.80
2019-02-15T09:45:52.628Z,7.80
2019-02-15T09:48:22.982Z,7.53
2019-02-15T09:50:52.913Z,8.37
2019-02-15T09:53:23.144Z,6.67
2019-02-15T09:55:53.966Z,7.80
2019-02-15T09:58:24.378Z,7.63
2019-02-15T10:00:54.001Z,7.07
2019-02-15T10:03:23.676Z,7.33
2019-02-15T10:05:53.941Z,7.73
2019-02-15T10:08:24.903Z,7.90
2019-02-15T10:10:54.431Z,8.77
2019-02-15T10:13:24.743Z,10.10
2019-02-15T10:15:54.781Z,10.37
2019-02-15T10:18:24.629Z,10.47
2019-02-15T10:20:54.676Z,8.13
2019-02-15T10:23:24.154Z,8.33
2019-02-15T10:25:53.644Z,8.40
2019-02-15T10:28:24.013Z,7.63
2019-02-15T10:30:54.721Z,8.47
2019-02-15T10:33:24.642Z,8.33
2019-02-15T10:35:54.089Z,5.90
2019-02-15T10:38:23.924Z,5.87
2019-02-15T10:40:54.281Z,5.07
2019-02-15T10:43:23.333Z,5.30
2019-02-15T10:45:53.070Z,5.53
2019-02-15T10:48:24.656Z,6.93
2019-02-15T10:50:56.297Z,8.23
2019-02-15T10:53:25.821Z,19.13
2019-02-15T10:55:56.592Z,16.10
2019-02-15T10:58:26.456Z,15.72
2019-02-15T11:00:56.055Z,15.43
2019-02-15T11:03:26.848Z,15.13
2019-02-15T11:05:56.217Z,12.30
2019-02-15T11:08:27.024Z,6.10
2019-02-15T11:10:58.125Z,6.65
2019-02-15T11:13:29.236Z,9.18
2019-02-15T11:16:00.062Z,7.57
2019-02-15T11:18:30.549Z,10.55
2019-02-15T11:21:00.235Z,6.95
2019-02-15T11:23:32.276Z,11.75
2019-02-15T11:26:04.593Z,8.80
2019-02-15T11:28:34.476Z,7.12
2019-02-15T11:31:04.813Z,9.03
2019-02-15T11:33:34.811Z,7.10
2019-02-15T11:36:05.806Z,14.28
2019-02-15T11:38:35.829Z,5.22
2019-02-15T11:41:11.131Z,7.03
2019-02-15T11:43:38.355Z,7.73
2019-02-15T11:46:08.704Z,7.42
2019-02-15T11:48:38.917Z,8.05
2019-02-15T11:51:08.638Z,5.50
2019-02-15T11:53:38.495Z,5.70
2019-02-15T11:56:09.910Z,6.57
2019-02-15T11:58:39.562Z,11.50
2019-02-15T12:01:10.487Z,5.93
2019-02-15T12:03:40.740Z,4.65
2019-02-15T12:06:11.858Z,7.08
2019-02-15T12:08:45.709Z,5.30
2019-02-15T12:11:14.952Z,5.30
2019-02-15T12:13:45.624Z,7.50
2019-02-15T12:16:15.566Z,4.87
2019-02-15T12:18:45.917Z,4.40
2019-02-15T12:21:16.108Z,5.17
2019-02-15T12:23:47.096Z,4.30
2019-02-15T12:26:17.062Z,6.42
2019-02-15T12:28:46.358Z,5.42
2019-02-15T12:31:18.196Z,4.62
2019-02-15T12:33:48.067Z,6.33
2019-02-15T12:36:17.239Z,4.50
2019-02-15T12:38:48.344Z,8.90
2019-02-15T12:41:18.103Z,3.92
2019-02-15T12:43:47.707Z,4.75
2019-02-15T12:46:17.846Z,5.58
2019-02-15T12:48:48.139Z,5.53
2019-02-15T12:51:17.026Z,4.47
2019-02-15T12:53:46.849Z,4.33
2019-02-15T12:56:18.346Z,3.63
2019-02-15T12:58:49.114Z,20.20
2019-02-15T13:01:19.230Z,6.43
2019-02-15T13:03:50.973Z,6.70
2019-02-15T13:06:28.711Z,9.03
2019-02-15T13:08:56.198Z,8.98
2019-02-15T13:11:26.697Z,4.65
2019-02-15T13:13:59.324Z,5.83
2019-02-15T13:16:30.188Z,5.55
2019-02-15T13:19:00.996Z,4.37
2019-02-15T13:21:30.506Z,4.95
2019-02-15T13:24:02.902Z,5.22
2019-02-15T13:26:33.030Z,4.92
2019-02-15T13:29:03.537Z,5.87
2019-02-15T13:31:41.652Z,6.03
2019-02-15T13:34:13.197Z,7.08
2019-02-15T13:36:46.314Z,6.03
2019-02-15T13:39:17.891Z,6.83
2019-02-15T13:41:48.092Z,7.65
2019-02-15T13:44:18.111Z,6.10
2019-02-15T13:46:47.741Z,8.25
2019-02-15T13:49:17.044Z,6.15
2019-02-15T13:51:48.936Z,7.63
2019-02-15T13:54:19.757Z,5.83
2019-02-15T13:56:50.276Z,6.10
2019-02-15T13:59:20.664Z,6.53
2019-02-15T14:01:52.723Z,7.30
2019-02-15T14:04:21.977Z,6.43
2019-02-15T14:06:55.463Z,6.00
2019-02-15T14:09:26.964Z,10.03
2019-02-15T14:11:57.342Z,7.07
2019-02-15T14:14:27.524Z,10.13
2019-02-15T14:16:58.163Z,15.10
2019-02-15T14:19:27.901Z,7.93
2019-02-15T14:21:58.795Z,6.23
2019-02-15T14:24:28.666Z,6.10
2019-02-15T14:27:00.253Z,8.87
2019-02-15T14:29:43.122Z,7.20
2019-02-15T14:32:14.133Z,7.57
2019-02-15T14:34:46.074Z,6.53
2019-02-15T14:37:18.503Z,9.40
2019-02-15T14:39:50.987Z,5.10
2019-02-15T14:42:20.326Z,5.57
2019-02-15T14:44:53.475Z,6.83
2019-02-15T14:47:25.869Z,6.37
2019-02-15T14:49:56.689Z,7.07
2019-02-15T14:52:26.831Z,6.30
2019-02-15T14:54:58.444Z,9.40
2019-02-15T14:57:30.574Z,8.10
2019-02-15T15:00:00.512Z,7.17
2019-02-15T15:02:30.094Z,7.00
2019-02-15T15:05:00.597Z,8.00
2019-02-15T15:07:32.078Z,7.73
2019-02-15T15:10:02.217Z,8.33
2019-02-15T15:12:33.159Z,10.00
2019-02-15T15:15:05.215Z,15.83
2019-02-15T15:17:34.937Z,10.80
2019-02-15T15:20:08.282Z,9.30
2019-02-15T15:22:38.644Z,8.20
2019-02-15T15:25:09.947Z,9.80
2019-02-15T15:27:39.987Z,7.40
2019-02-15T15:30:11.966Z,8.67
2019-02-15T15:32:40.977Z,10.87
2019-02-15T15:35:12.657Z,7.40
2019-02-15T15:37:43.317Z,11.43
2019-02-15T15:40:14.654Z,16.53
2019-02-15T15:42:44.783Z,12.00
2019-02-15T15:45:14.559Z,9.07
2019-02-15T15:47:45.005Z,6.57
2019-02-15T15:50:15.224Z,6.60
2019-02-15T15:52:45.666Z,9.13
2019-02-15T15:55:15.026Z,6.80
2019-02-15T15:57:44.679Z,9.27
2019-02-15T16:00:17.188Z,8.40
2019-02-15T16:02:46.744Z,7.27
2019-02-15T16:05:16.757Z,9.67
2019-02-15T16:07:48.321Z,7.50
2019-02-15T16:10:18.414Z,6.20
2019-02-15T16:12:48.095Z,6.73
2019-02-15T16:15:18.512Z,6.70
2019-02-15T16:17:50.145Z,6.03
2019-02-15T16:20:25.284Z,9.70
2019-02-15T16:22:55.737Z,7.43
2019-02-15T16:25:25.879Z,8.90
2019-02-15T16:27:55.983Z,6.73
2019-02-15T16:30:25.765Z,5.77
2019-02-15T16:32:55.327Z,10.73
2019-02-15T16:35:25.562Z,13.20
2019-02-15T16:37:57.030Z,8.20
2019-02-15T16:40:30.197Z,8.80
2019-02-15T16:43:00.631Z,7.80
2019-02-15T16:45:32.779Z,8.10
2019-02-15T16:48:02.265Z,11.47
2019-02-15T16:50:32.726Z,5.63
2019-02-15T16:53:06.530Z,12.17
2019-02-15T16:55:38.314Z,11.40
2019-02-15T16:58:08.886Z,16.10
2019-02-15T17:00:38.332Z,4.93
2019-02-15T17:03:12.549Z,4.77
2019-02-15T17:05:44.651Z,5.10
2019-02-15T17:08:17.514Z,10.37
2019-02-15T17:10:48.069Z,9.47
2019-02-15T17:13:20.433Z,4.60
2019-02-15T17:15:51.262Z,20.07
2019-02-15T17:18:21.677Z,12.33
2019-02-15T17:20:52.424Z,9.07
2019-02-15T17:23:23.517Z,9.53
2019-02-15T17:25:52.767Z,13.83
2019-02-15T17:28:23.053Z,7.83
2019-02-15T17:30:54.587Z,8.53
2019-02-15T17:33:27.474Z,15.43
2019-02-15T17:35:58.755Z,14.00
2019-02-15T17:38:29.457Z,25.23
2019-02-15T17:40:59.984Z,7.10
2019-02-15T17:43:30.356Z,7.13
2019-02-15T17:46:00.906Z,5.20
2019-02-15T17:48:31.303Z,5.03
2019-02-15T17:51:01.007Z,7.33
2019-02-15T17:53:33.202Z,5.33
2019-02-15T17:56:03.284Z,7.80
2019-02-15T17:58:35.182Z,6.87
2019-02-15T18:01:04.474Z,7.00
2019-02-15T18:03:35.472Z,4.70
2019-02-15T18:06:06.113Z,5.57
2019-02-15T18:08:36.776Z,4.80
2019-02-15T18:11:09.191Z,4.53
2019-02-15T18:13:39.512Z,5.77
2019-02-15T18:16:10.794Z,4.37
2019-02-15T18:18:43.158Z,3.80
2019-02-15T18:21:13.283Z,3.83
2019-02-15T18:23:46.136Z,4.60
2019-02-15T18:26:16.249Z,4.30
2019-02-15T18:28:47.546Z,6.53
2019-02-15T18:31:17.493Z,6.60
2019-02-15T18:33:49.607Z,8.53
2019-02-15T18:36:20.681Z,6.83
2019-02-15T18:38:51.155Z,5.80
2019-02-15T18:41:20.745Z,5.57
2019-02-15T18:43:49.712Z,5.63
2019-02-15T18:46:19.627Z,6.10
2019-02-15T18:48:49.706Z,5.93
2019-02-15T18:51:20.286Z,4.70
2019-02-15T18:53:50.935Z,4.10
2019-02-15T18:56:23.136Z,3.97
2019-02-15T18:58:54.241Z,5.77
2019-02-15T19:01:23.627Z,5.70
2019-02-15T19:03:56.105Z,6.17
2019-02-15T19:06:24.912Z,5.50
2019-02-15T19:08:56.945Z,5.20
2019-02-15T19:11:27.196Z,4.47
2019-02-15T19:13:58.031Z,4.37
2019-02-15T19:16:28.533Z,4.30
2019-02-15T19:18:58.686Z,4.77
2019-02-15T19:21:29.206Z,5.30
2019-02-15T19:23:59.039Z,4.50
2019-02-15T19:26:28.834Z,4.10
2019-02-15T19:28:59.531Z,4.17
2019-02-15T19:31:29.676Z,5.40
2019-02-15T19:34:00.540Z,3.93
2019-02-15T19:36:32.295Z,3.20
2019-02-15T19:39:04.571Z,3.60
2019-02-15T19:41:38.765Z,3.57
2019-02-15T19:44:09.095Z,3.93
2019-02-15T19:46:40.086Z,3.60
2019-02-15T19:49:11.269Z,4.20
2019-02-15T19:51:42.939Z,4.30
2019-02-15T19:54:13.526Z,3.57
2019-02-15T19:56:43.284Z,3.50
2019-02-15T19:59:13.378Z,4.10
2019-02-15T20:01:43.441Z,4.40
2019-02-15T20:04:15.975Z,3.57
2019-02-15T20:06:48.881Z,3.50
2019-02-15T20:09:18.228Z,4.47
2019-02-15T20:11:47.882Z,4.63
2019-02-15T20:14:18.461Z,4.23
2019-02-15T20:16:48.651Z,5.67
2019-02-15T20:19:18.188Z,4.13
2019-02-15T20:21:49.165Z,4.17
2019-02-15T20:24:19.812Z,4.60
2019-02-15T20:26:49.109Z,6.27
2019-02-15T20:29:20.534Z,7.73
2019-02-15T20:31:52.178Z,6.17
2019-02-15T20:34:23.114Z,6.30
2019-02-15T20:36:55.350Z,5.57
2019-02-15T20:39:25.294Z,5.67
2019-02-15T20:41:56.514Z,4.10
2019-02-15T20:44:25.871Z,4.40
2019-02-15T20:46:56.903Z,3.97
2019-02-15T20:49:26.294Z,3.83
2019-02-15T20:51:56.441Z,4.30
2019-02-15T20:54:27.620Z,3.57
2019-02-15T20:57:01.066Z,4.80
2019-02-15T20:59:30.734Z,4.70
2019-02-15T21:02:01.214Z,4.90
2019-02-15T21:04:33.042Z,4.60
2019-02-15T21:07:04.018Z,3.80
2019-02-15T21:09:34.140Z,4.10
2019-02-15T21:12:03.582Z,3.47
2019-02-15T21:14:38.226Z,3.60
2019-02-15T21:17:11.078Z,3.27
2019-02-15T21:19:41.619Z,5.10
2019-02-15T21:22:10.956Z,5.00
2019-02-15T21:24:42.002Z,3.93
2019-02-15T21:27:11.532Z,4.60
2019-02-15T21:29:42.352Z,4.03
2019-02-15T21:32:12.973Z,4.90
2019-02-15T21:34:45.027Z,4.33
2019-02-15T21:37:16.378Z,3.93
2019-02-15T21:39:49.077Z,3.60
2019-02-15T21:42:21.019Z,3.60
2019-02-15T21:44:50.405Z,3.77
2019-02-15T21:47:21.085Z,4.80
2019-02-15T21:49:51.285Z,3.80
2019-02-15T21:52:20.592Z,3.90
2019-02-15T21:54:51.168Z,4.53
2019-02-15T21:57:21.297Z,4.00
2019-02-15T21:59:51.094Z,3.87
2019-02-15T22:02:21.018Z,3.73
2019-02-15T22:04:55.108Z,3.23
2019-02-15T22:07:25.136Z,3.30
2019-02-15T22:09:56.478Z,1.67
2019-02-15T22:12:27.055Z,3.03
2019-02-15T22:14:57.113Z,3.77
2019-02-15T22:17:26.385Z,3.40
2019-02-15T22:19:58.261Z,3.67
2019-02-15T22:22:29.262Z,4.53
2019-02-15T22:24:59.943Z,4.30
2019-02-15T22:27:29.816Z,3.50
2019-02-15T22:30:00.433Z,3.67
2019-02-15T22:32:33.451Z,3.30
2019-02-15T22:35:04.223Z,3.47
2019-02-15T22:37:34.048Z,2.93
2019-02-15T22:40:34.459Z,2.90
2019-02-15T22:43:20.709Z,2.93
2019-02-15T22:45:51.234Z,2.23
2019-02-15T22:48:21.940Z,3.10
2019-02-15T22:50:53.070Z,3.57
2019-02-15T22:53:23.453Z,3.43
2019-02-15T22:55:54.773Z,3.73
2019-02-15T22:58:26.095Z,3.90
2019-02-15T23:01:10.525Z,3.70
2019-02-15T23:03:40.954Z,3.03
2019-02-15T23:06:11.676Z,3.40
2019-02-15T23:08:41.517Z,3.60
2019-02-15T23:11:10.877Z,3.63
2019-02-15T23:13:41.622Z,3.60
2019-02-15T23:16:12.757Z,4.03
2019-02-15T23:18:44.114Z,4.20
2019-02-15T23:21:14.411Z,4.27
2019-02-15T23:23:45.970Z,1.50
2019-02-15T23:26:18.292Z,3.43
2019-02-15T23:28:47.786Z,3.30
2019-02-15T23:31:17.715Z,3.50
2019-02-15T23:33:49.653Z,4.53
2019-02-15T23:36:20.965Z,4.40
2019-02-15T23:38:50.792Z,4.67
2019-02-15T23:41:20.648Z,4.33
2019-02-15T23:43:49.672Z,4.97
2019-02-15T23:46:19.005Z,6.43
2019-02-15T23:48:48.791Z,4.90
2019-02-15T23:51:19.091Z,4.50
2019-02-15T23:53:49.830Z,4.90
2019-02-15T23:56:20.222Z,4.63
2019-02-15T23:58:49.205Z,5.17
